createdAt,value
2022-11-07T00:02:13.789Z,4.10
2022-11-07T00:04:42.551Z,4.25
2022-11-07T00:07:11.125Z,4.20
2022-11-07T00:09:39.336Z,4.43
2022-11-07T00:12:08.293Z,4.47
2022-11-07T00:14:37.789Z,4.05
2022-11-07T00:17:05.961Z,4.22
2022-11-07T00:19:34.159Z,4.07
2022-11-07T00:22:02.339Z,3.80
2022-11-07T00:24:30.628Z,4.22
2022-11-07T00:26:58.942Z,4.47
2022-11-07T00:29:27.789Z,4.65
2022-11-07T00:31:58.989Z,4.95
2022-11-07T00:34:28.303Z,4.45
2022-11-07T00:36:56.457Z,4.40
2022-11-07T00:39:24.696Z,4.28
2022-11-07T00:41:53.202Z,4.60
2022-11-07T00:44:21.479Z,4.38
2022-11-07T00:47:03.059Z,4.60
2022-11-07T00:49:31.166Z,3.83
2022-11-07T00:51:59.237Z,4.32
2022-11-07T00:54:27.427Z,4.05
2022-11-07T00:56:55.449Z,4.60
2022-11-07T00:59:23.532Z,4.43
2022-11-07T01:01:51.946Z,4.10
2022-11-07T01:04:39.248Z,4.15
2022-11-07T01:07:07.840Z,4.18
2022-11-07T01:09:36.375Z,4.28
2022-11-07T01:12:06.030Z,4.13
2022-11-07T01:14:34.464Z,4.07
2022-11-07T01:17:02.732Z,4.00
2022-11-07T01:19:32.528Z,4.10
2022-11-07T01:22:00.844Z,3.72
2022-11-07T01:24:28.995Z,3.80
2022-11-07T01:26:57.231Z,3.80
2022-11-07T01:29:25.882Z,3.78
2022-11-07T01:31:54.049Z,4.30
2022-11-07T01:34:22.381Z,4.28
2022-11-07T01:36:51.977Z,3.97
2022-11-07T01:39:20.083Z,3.95
2022-11-07T01:41:48.329Z,3.95
2022-11-07T01:44:54.620Z,4.33
2022-11-07T01:47:26.487Z,4.38
2022-11-07T01:49:54.982Z,4.65
2022-11-07T01:52:29.445Z,3.97
2022-11-07T01:55:05.692Z,4.45
2022-11-07T01:57:39.332Z,4.65
2022-11-07T02:00:12.216Z,5.13
2022-11-07T02:02:42.582Z,4.43
2022-11-07T02:05:15.785Z,4.53
2022-11-07T02:07:45.602Z,4.68
2022-11-07T02:10:16.155Z,4.70
2022-11-07T02:12:45.172Z,4.60
2022-11-07T02:15:13.363Z,3.88
2022-11-07T02:17:42.055Z,5.00
2022-11-07T02:20:12.132Z,4.63
2022-11-07T02:22:49.527Z,4.40
2022-11-07T02:25:21.022Z,4.78
2022-11-07T02:27:55.344Z,4.30
2022-11-07T02:30:28.545Z,4.68
2022-11-07T02:32:57.269Z,4.25
2022-11-07T02:35:39.887Z,4.38
2022-11-07T02:38:14.898Z,4.00
2022-11-07T02:40:46.625Z,4.13
2022-11-07T02:43:18.568Z,3.75
2022-11-07T02:45:50.062Z,4.15
2022-11-07T02:48:18.640Z,4.32
2022-11-07T02:50:47.714Z,3.85
2022-11-07T02:53:16.177Z,3.55
2022-11-07T02:55:46.042Z,3.67
2022-11-07T02:58:14.186Z,3.92
2022-11-07T03:00:43.920Z,4.38
2022-11-07T03:03:12.531Z,4.35
2022-11-07T03:05:40.825Z,3.70
2022-11-07T03:08:09.006Z,4.28
2022-11-07T03:10:37.256Z,4.38
2022-11-07T03:13:06.668Z,4.57
2022-11-07T03:15:34.703Z,4.30
2022-11-07T03:18:02.871Z,4.18
2022-11-07T03:20:30.976Z,4.10
2022-11-07T03:22:59.158Z,3.60
2022-11-07T03:25:27.316Z,3.80
2022-11-07T03:27:55.538Z,3.95
2022-11-07T03:30:25.207Z,4.22
2022-11-07T03:32:53.874Z,3.88
2022-11-07T03:35:22.853Z,4.00
2022-11-07T03:37:51.987Z,3.95
2022-11-07T03:40:20.070Z,3.83
2022-11-07T03:42:48.299Z,4.28
2022-11-07T03:45:18.173Z,4.07
2022-11-07T03:47:48.611Z,3.97
2022-11-07T03:50:20.607Z,4.50
2022-11-07T03:52:50.107Z,3.88
2022-11-07T03:55:19.059Z,4.25
2022-11-07T03:57:48.255Z,4.03
2022-11-07T04:00:17.911Z,3.92
2022-11-07T04:02:47.524Z,4.63
2022-11-07T04:05:15.970Z,4.70
2022-11-07T04:07:44.124Z,4.43
2022-11-07T04:10:12.493Z,3.92
2022-11-07T04:12:58.085Z,4.45
2022-11-07T04:15:43.978Z,3.63
2022-11-07T04:18:13.471Z,3.95
2022-11-07T04:20:41.712Z,3.85
2022-11-07T04:23:09.922Z,4.03
2022-11-07T04:25:55.552Z,3.80
2022-11-07T04:28:23.746Z,3.70
2022-11-07T04:30:52.000Z,3.97
2022-11-07T04:33:21.648Z,3.65
2022-11-07T04:35:49.784Z,4.30
2022-11-07T04:38:17.933Z,4.03
2022-11-07T04:40:46.127Z,4.13
2022-11-07T04:43:14.590Z,4.15
2022-11-07T04:45:43.077Z,4.00
2022-11-07T04:48:12.764Z,4.53
2022-11-07T04:50:43.802Z,4.22
2022-11-07T04:53:14.363Z,3.97
2022-11-07T04:55:43.878Z,4.20
2022-11-07T04:58:12.312Z,4.13
2022-11-07T05:00:40.410Z,4.45
2022-11-07T05:03:09.371Z,4.53
2022-11-07T05:05:37.689Z,4.50
2022-11-07T05:08:07.525Z,4.05
2022-11-07T05:10:35.752Z,4.40
2022-11-07T05:13:03.845Z,4.65
2022-11-07T05:15:31.897Z,4.20
2022-11-07T05:18:00.049Z,4.35
2022-11-07T05:20:32.007Z,5.07
2022-11-07T05:23:19.770Z,4.03
2022-11-07T05:25:52.026Z,4.30
2022-11-07T05:28:31.303Z,4.53
2022-11-07T05:31:06.055Z,4.22
2022-11-07T05:33:34.513Z,4.63
2022-11-07T05:36:15.012Z,4.85
2022-11-07T05:38:44.972Z,4.20
2022-11-07T05:41:16.209Z,4.50
2022-11-07T05:43:45.095Z,4.10
2022-11-07T05:46:14.169Z,3.97
2022-11-07T05:48:42.354Z,4.22
2022-11-07T05:51:10.730Z,4.13
2022-11-07T05:53:38.897Z,4.35
2022-11-07T05:56:07.825Z,3.88
2022-11-07T05:58:37.339Z,4.50
2022-11-07T06:01:07.367Z,4.38
2022-11-07T06:03:35.598Z,5.13
2022-11-07T06:06:04.053Z,3.83
2022-11-07T06:08:32.216Z,4.18
2022-11-07T06:11:05.393Z,4.00
2022-11-07T06:13:33.612Z,4.70
2022-11-07T06:16:03.161Z,3.78
2022-11-07T06:18:31.230Z,3.90
2022-11-07T06:21:02.747Z,4.22
2022-11-07T06:23:30.992Z,4.40
2022-11-07T06:25:59.025Z,3.90
2022-11-07T06:28:27.391Z,4.50
2022-11-07T06:30:59.854Z,4.75
2022-11-07T06:33:30.787Z,5.00
2022-11-07T06:36:06.888Z,4.60
2022-11-07T06:38:35.102Z,5.13
2022-11-07T06:41:08.969Z,4.78
2022-11-07T06:43:38.060Z,5.20
2022-11-07T06:46:08.894Z,4.93
2022-11-07T06:48:38.963Z,4.50
2022-11-07T06:51:09.800Z,5.10
2022-11-07T06:53:38.602Z,4.35
2022-11-07T06:56:09.488Z,4.75
2022-11-07T06:58:38.059Z,4.40
2022-11-07T07:01:12.961Z,4.93
2022-11-07T07:03:44.328Z,4.70
2022-11-07T07:06:17.794Z,4.88
2022-11-07T07:08:46.860Z,4.60
2022-11-07T07:11:16.893Z,4.57
2022-11-07T07:13:45.166Z,4.40
2022-11-07T07:16:13.779Z,4.78
2022-11-07T07:18:43.500Z,4.55
2022-11-07T07:21:14.134Z,4.07
2022-11-07T07:23:42.843Z,4.40
2022-11-07T07:26:14.710Z,4.22
2022-11-07T07:28:44.312Z,4.53
2022-11-07T07:31:24.022Z,4.82
2022-11-07T07:33:53.839Z,5.00
2022-11-07T07:36:22.288Z,4.68
2022-11-07T07:38:51.197Z,4.90
2022-11-07T07:41:20.374Z,4.43
2022-11-07T07:43:48.636Z,4.40
2022-11-07T07:46:22.260Z,4.53
2022-11-07T07:48:50.673Z,5.22
2022-11-07T07:51:20.608Z,4.40
2022-11-07T07:53:48.933Z,4.35
2022-11-07T07:56:17.623Z,4.43
2022-11-07T07:58:46.059Z,4.18
2022-11-07T08:01:14.247Z,4.70
2022-11-07T08:04:00.243Z,4.60
2022-11-07T08:06:31.068Z,3.90
2022-11-07T08:08:59.356Z,4.80
2022-11-07T08:11:27.914Z,4.50
2022-11-07T08:14:00.835Z,4.10
2022-11-07T08:16:29.753Z,4.53
2022-11-07T08:18:57.899Z,4.07
2022-11-07T08:21:26.135Z,3.80
2022-11-07T08:23:56.409Z,3.97
2022-11-07T08:26:24.659Z,4.45
2022-11-07T08:28:55.271Z,4.35
2022-11-07T08:31:23.825Z,4.25
2022-11-07T08:33:52.126Z,4.72
2022-11-07T08:36:20.307Z,4.38
2022-11-07T08:38:48.586Z,4.68
2022-11-07T08:41:22.109Z,3.95
2022-11-07T08:43:51.010Z,4.32
2022-11-07T08:46:19.211Z,4.28
2022-11-07T08:48:47.527Z,3.92
2022-11-07T08:51:15.741Z,4.03
2022-11-07T08:53:43.956Z,3.85
2022-11-07T08:56:12.764Z,4.28
2022-11-07T08:58:42.303Z,4.38
2022-11-07T09:01:11.783Z,4.72
2022-11-07T09:03:47.202Z,4.85
2022-11-07T09:06:16.280Z,4.70
2022-11-07T09:08:44.946Z,4.85
2022-11-07T09:11:15.545Z,3.70
2022-11-07T09:13:46.724Z,4.30
2022-11-07T09:16:17.342Z,4.43
2022-11-07T09:18:46.901Z,5.35
2022-11-07T09:21:21.820Z,4.55
2022-11-07T09:23:50.764Z,4.38
2022-11-07T09:26:19.092Z,4.10
2022-11-07T09:28:52.966Z,4.53
2022-11-07T09:31:23.819Z,4.30
2022-11-07T09:33:52.061Z,4.10
2022-11-07T09:36:22.062Z,4.00
2022-11-07T09:38:50.264Z,4.65
2022-11-07T09:41:34.663Z,4.32
2022-11-07T09:44:31.584Z,3.63
2022-11-07T09:47:09.056Z,3.88
2022-11-07T09:49:40.709Z,3.75
2022-11-07T09:52:20.840Z,3.67
2022-11-07T09:54:56.410Z,3.60
2022-11-07T09:57:27.431Z,3.85
2022-11-07T10:00:03.277Z,4.05
2022-11-07T10:02:38.739Z,4.50
2022-11-07T10:05:11.141Z,3.85
2022-11-07T10:07:51.765Z,3.55
2022-11-07T10:10:34.617Z,4.13
2022-11-07T10:13:36.544Z,3.80
2022-11-07T10:16:16.165Z,4.43
2022-11-07T10:19:05.283Z,4.15
2022-11-07T10:21:45.537Z,4.28
2022-11-07T10:24:33.386Z,4.60
2022-11-07T10:27:03.910Z,4.47
2022-11-07T10:29:44.756Z,4.93
2022-11-07T10:32:24.931Z,4.43
2022-11-07T10:35:11.895Z,4.13
2022-11-07T10:37:40.276Z,4.45
2022-11-07T10:40:17.436Z,4.80
2022-11-07T10:42:48.903Z,4.80
2022-11-07T10:45:19.164Z,4.32
2022-11-07T10:47:59.677Z,4.53
2022-11-07T10:50:28.592Z,4.50
2022-11-07T10:52:58.959Z,5.40
2022-11-07T10:55:29.484Z,4.43
2022-11-07T10:58:07.041Z,4.53
2022-11-07T11:00:39.392Z,4.32
2022-11-07T11:03:41.884Z,4.10
2022-11-07T11:06:24.204Z,4.15
2022-11-07T11:08:54.238Z,4.80
2022-11-07T11:11:32.706Z,4.28
2022-11-07T11:14:13.241Z,4.10
2022-11-07T11:16:43.918Z,4.43
2022-11-07T11:19:24.215Z,4.00
2022-11-07T11:21:56.466Z,4.63
2022-11-07T11:24:35.580Z,4.43
2022-11-07T11:27:13.659Z,4.47
2022-11-07T11:29:51.811Z,4.65
2022-11-07T11:32:28.223Z,3.90
2022-11-07T11:35:16.549Z,3.92
2022-11-07T11:37:53.552Z,4.60
2022-11-07T11:40:23.951Z,4.28
2022-11-07T11:43:00.442Z,4.20
2022-11-07T11:45:43.515Z,4.63
2022-11-07T11:48:24.545Z,4.50
2022-11-07T11:51:00.729Z,4.57
2022-11-07T11:53:29.840Z,4.40
2022-11-07T11:56:25.437Z,4.57
2022-11-07T11:59:18.740Z,4.80
2022-11-07T12:01:58.071Z,4.18
2022-11-07T12:04:51.983Z,4.47
2022-11-07T12:07:42.830Z,4.50
2022-11-07T12:10:20.839Z,4.90
2022-11-07T12:13:12.613Z,5.50
2022-11-07T12:16:04.906Z,4.97
2022-11-07T12:18:43.343Z,4.40
2022-11-07T12:21:31.579Z,4.53
2022-11-07T12:24:23.039Z,4.50
2022-11-07T12:27:06.691Z,4.30
2022-11-07T12:29:57.535Z,4.20
2022-11-07T12:32:38.214Z,4.80
2022-11-07T12:35:36.604Z,4.85
2022-11-07T12:38:29.960Z,4.72
2022-11-07T12:41:10.731Z,4.55
2022-11-07T12:43:56.519Z,5.28
2022-11-07T12:46:34.130Z,5.05
2022-11-07T12:49:36.032Z,5.07
2022-11-07T12:52:22.235Z,4.53
2022-11-07T12:54:58.214Z,4.97
2022-11-07T12:57:33.139Z,4.50
2022-11-07T13:00:07.928Z,4.85
2022-11-07T13:02:55.686Z,4.65
2022-11-07T13:05:41.894Z,4.82
2022-11-07T13:08:18.358Z,4.35
2022-11-07T13:10:56.835Z,5.10
2022-11-07T13:13:45.113Z,4.28
2022-11-07T13:16:25.754Z,4.55
2022-11-07T13:18:54.014Z,4.43
2022-11-07T13:21:22.406Z,4.50
2022-11-07T13:23:50.708Z,4.03
2022-11-07T13:26:46.873Z,4.13
2022-11-07T13:29:34.598Z,4.32
2022-11-07T13:32:09.405Z,4.40
2022-11-07T13:34:56.509Z,4.10
2022-11-07T13:37:30.793Z,4.63
2022-11-07T13:40:06.120Z,4.07
2022-11-07T13:42:35.937Z,3.80
2022-11-07T13:45:26.237Z,4.32
2022-11-07T13:48:00.445Z,4.30
2022-11-07T13:50:41.537Z,3.90
2022-11-07T13:53:18.423Z,4.35
2022-11-07T13:55:56.536Z,3.97
2022-11-07T13:58:28.855Z,4.07
2022-11-07T14:01:09.608Z,5.00
2022-11-07T14:03:37.844Z,4.22
2022-11-07T14:06:07.902Z,4.32
2022-11-07T14:08:40.450Z,4.28
2022-11-07T14:11:18.880Z,4.65
2022-11-07T14:13:51.425Z,4.15
2022-11-07T14:16:25.080Z,4.15
2022-11-07T14:18:58.956Z,4.75
2022-11-07T14:21:30.169Z,4.30
2022-11-07T14:23:58.952Z,4.10
2022-11-07T14:26:32.866Z,5.38
2022-11-07T14:29:01.795Z,4.63
2022-11-07T14:31:34.461Z,4.68
2022-11-07T14:34:16.933Z,4.47
2022-11-07T14:36:49.108Z,4.50
2022-11-07T14:39:19.091Z,4.47
2022-11-07T14:41:48.153Z,4.30
2022-11-07T14:44:25.205Z,4.82
2022-11-07T14:47:00.412Z,4.32
2022-11-07T14:49:37.557Z,4.60
2022-11-07T14:52:08.982Z,5.55
2022-11-07T14:54:42.770Z,4.22
2022-11-07T14:57:13.901Z,4.57
2022-11-07T14:59:43.582Z,4.43
2022-11-07T15:02:33.401Z,4.43
2022-11-07T15:05:10.775Z,3.88
2022-11-07T15:07:49.685Z,4.07
2022-11-07T15:10:30.402Z,4.40
2022-11-07T15:13:01.647Z,4.10
2022-11-07T15:15:33.695Z,3.58
2022-11-07T15:18:07.143Z,4.80
2022-11-07T15:20:39.672Z,3.85
2022-11-07T15:23:30.837Z,4.60
2022-11-07T15:26:03.127Z,3.78
2022-11-07T15:28:45.327Z,4.30
2022-11-07T15:31:22.651Z,4.80
2022-11-07T15:33:53.350Z,4.10
2022-11-07T15:36:22.498Z,4.88
2022-11-07T15:38:52.154Z,4.00
2022-11-07T15:41:20.895Z,4.13
2022-11-07T15:43:49.057Z,4.10
2022-11-07T15:46:27.488Z,3.80
2022-11-07T15:48:58.684Z,4.18
2022-11-07T15:51:26.884Z,3.60
2022-11-07T15:53:54.979Z,3.50
2022-11-07T15:56:26.271Z,3.70
2022-11-07T15:58:56.137Z,3.28
2022-11-07T16:01:24.669Z,3.83
2022-11-07T16:03:52.872Z,3.90
2022-11-07T16:06:28.704Z,3.47
2022-11-07T16:08:57.537Z,3.45
2022-11-07T16:11:26.015Z,3.20
2022-11-07T16:14:14.707Z,3.35
2022-11-07T16:16:45.041Z,3.70
2022-11-07T16:19:18.195Z,3.03
2022-11-07T16:21:48.875Z,3.30
2022-11-07T16:24:17.319Z,3.50
2022-11-07T16:26:49.346Z,3.38
2022-11-07T16:29:17.703Z,4.50
2022-11-07T16:31:45.797Z,3.42
2022-11-07T16:34:14.235Z,3.60
2022-11-07T16:36:42.488Z,4.28
2022-11-07T16:39:20.976Z,4.50
2022-11-07T16:41:50.267Z,3.80
2022-11-07T16:44:25.653Z,3.78
2022-11-07T16:46:56.492Z,3.70
2022-11-07T16:49:30.689Z,3.72
2022-11-07T16:51:59.392Z,3.33
2022-11-07T16:54:29.020Z,3.40
2022-11-07T16:56:57.426Z,3.10
2022-11-07T16:59:26.113Z,3.55
2022-11-07T17:01:54.381Z,3.70
2022-11-07T17:04:22.581Z,3.67
2022-11-07T17:06:50.914Z,3.80
2022-11-07T17:09:20.430Z,3.63
2022-11-07T17:11:50.004Z,3.47
2022-11-07T17:14:18.083Z,3.53
2022-11-07T17:16:49.564Z,3.22
2022-11-07T17:19:17.665Z,3.40
2022-11-07T17:21:49.283Z,3.35
2022-11-07T17:24:17.697Z,3.75
2022-11-07T17:26:45.871Z,4.10
2022-11-07T17:29:15.537Z,3.60
2022-11-07T17:31:44.456Z,3.88
2022-11-07T17:34:12.589Z,3.45
2022-11-07T17:36:46.007Z,3.65
2022-11-07T17:39:17.375Z,3.67
2022-11-07T17:41:48.196Z,3.72
2022-11-07T17:44:19.199Z,4.03
2022-11-07T17:46:49.890Z,4.32
2022-11-07T17:49:21.857Z,4.65
2022-11-07T17:51:52.712Z,4.40
2022-11-07T17:54:24.142Z,4.57
2022-11-07T17:56:56.331Z,4.60
2022-11-07T17:59:25.939Z,4.57
2022-11-07T18:01:54.303Z,5.05
2022-11-07T18:04:22.563Z,5.10
2022-11-07T18:06:50.687Z,5.07
2022-11-07T18:09:18.986Z,5.35
2022-11-07T18:11:47.154Z,5.78
2022-11-07T18:14:15.719Z,5.38
2022-11-07T18:16:45.180Z,5.57
2022-11-07T18:19:14.713Z,5.40
2022-11-07T18:21:42.849Z,6.03
2022-11-07T18:24:10.929Z,8.57
2022-11-07T18:26:39.499Z,6.88
2022-11-07T18:29:10.477Z,5.85
2022-11-07T18:31:41.221Z,6.38
2022-11-07T18:34:13.513Z,6.60
2022-11-07T18:36:43.910Z,5.78
2022-11-07T18:39:16.078Z,5.85
2022-11-07T18:41:45.187Z,6.30
2022-11-07T18:44:14.065Z,6.40
2022-11-07T18:46:42.947Z,6.45
2022-11-07T18:49:15.105Z,5.90
2022-11-07T18:51:43.939Z,6.95
2022-11-07T18:54:14.109Z,6.30
2022-11-07T18:56:43.597Z,6.57
2022-11-07T18:59:12.574Z,6.32
2022-11-07T19:01:41.468Z,6.15
2022-11-07T19:04:11.347Z,6.35
2022-11-07T19:06:55.596Z,5.97
2022-11-07T19:09:27.714Z,5.57
2022-11-07T19:11:56.382Z,5.35
2022-11-07T19:14:24.666Z,6.28
2022-11-07T19:16:53.102Z,5.93
2022-11-07T19:19:21.299Z,6.22
2022-11-07T19:21:51.075Z,6.20
2022-11-07T19:24:19.242Z,5.10
2022-11-07T19:26:47.436Z,6.05
2022-11-07T19:29:16.627Z,5.60
2022-11-07T19:31:44.961Z,5.47
2022-11-07T19:34:13.202Z,5.78
2022-11-07T19:36:41.579Z,5.90
2022-11-07T19:39:11.031Z,6.13
2022-11-07T19:41:39.205Z,5.70
2022-11-07T19:44:07.450Z,6.82
2022-11-07T19:46:35.708Z,5.78
2022-11-07T19:49:03.874Z,5.78
2022-11-07T19:51:32.067Z,6.25
2022-11-07T19:54:01.551Z,6.63
2022-11-07T19:56:32.740Z,5.68
2022-11-07T19:59:02.168Z,6.28
2022-11-07T20:01:33.013Z,6.40
2022-11-07T20:04:01.941Z,6.20
2022-11-07T20:06:35.824Z,6.18
2022-11-07T20:09:06.925Z,5.68
2022-11-07T20:11:36.916Z,5.78
2022-11-07T20:14:05.600Z,7.25
2022-11-07T20:16:34.673Z,5.80
2022-11-07T20:19:03.194Z,6.00
2022-11-07T20:21:33.638Z,5.78
2022-11-07T20:24:01.857Z,6.45
2022-11-07T20:26:34.240Z,6.35
2022-11-07T20:29:04.776Z,5.63
2022-11-07T20:31:37.581Z,5.70
2022-11-07T20:34:08.249Z,5.80
2022-11-07T20:36:36.473Z,6.15
2022-11-07T20:39:05.094Z,5.78
2022-11-07T20:41:33.353Z,5.82
2022-11-07T20:44:06.735Z,6.50
2022-11-07T20:46:37.854Z,6.00
2022-11-07T20:49:08.605Z,5.95
2022-11-07T20:51:36.855Z,6.00
2022-11-07T20:54:05.163Z,5.75
2022-11-07T20:56:33.733Z,5.82
2022-11-07T20:59:01.922Z,5.55
2022-11-07T21:01:36.209Z,5.70
2022-11-07T21:04:06.097Z,5.13
2022-11-07T21:06:35.179Z,6.00
2022-11-07T21:09:03.753Z,5.78
2022-11-07T21:11:32.524Z,5.18
2022-11-07T21:14:01.366Z,5.40
2022-11-07T21:16:34.419Z,4.97
2022-11-07T21:19:04.897Z,5.18
2022-11-07T21:21:33.672Z,4.97
2022-11-07T21:24:02.240Z,4.90
2022-11-07T21:26:33.650Z,5.38
2022-11-07T21:29:03.511Z,4.85
2022-11-07T21:31:34.306Z,5.10
2022-11-07T21:34:02.496Z,4.68
2022-11-07T21:36:31.860Z,4.00
2022-11-07T21:39:02.026Z,5.35
2022-11-07T21:41:31.797Z,4.32
2022-11-07T21:44:00.266Z,4.40
2022-11-07T21:46:34.224Z,4.68
2022-11-07T21:49:04.211Z,4.82
2022-11-07T21:51:34.132Z,4.32
2022-11-07T21:54:04.535Z,4.60
2022-11-07T21:56:36.256Z,4.60
2022-11-07T21:59:08.191Z,4.43
2022-11-07T22:01:39.174Z,4.38
2022-11-07T22:04:12.224Z,4.03
2022-11-07T22:06:44.005Z,4.15
2022-11-07T22:09:16.093Z,4.05
2022-11-07T22:11:45.015Z,4.30
2022-11-07T22:14:15.519Z,4.18
2022-11-07T22:16:45.369Z,4.22
2022-11-07T22:19:13.644Z,3.45
2022-11-07T22:21:42.477Z,3.70
2022-11-07T22:24:11.578Z,3.53
2022-11-07T22:26:39.684Z,3.72
2022-11-07T22:29:07.920Z,3.42
2022-11-07T22:31:36.203Z,3.65
2022-11-07T22:34:05.658Z,3.70
2022-11-07T22:36:33.853Z,4.55
2022-11-07T22:39:01.952Z,3.50
2022-11-07T22:41:30.440Z,3.50
2022-11-07T22:43:59.467Z,3.53
2022-11-07T22:46:30.227Z,3.25
2022-11-07T22:49:00.138Z,3.80
2022-11-07T22:51:32.463Z,3.67
2022-11-07T22:54:05.348Z,3.63
2022-11-07T22:56:35.144Z,3.38
2022-11-07T22:59:03.908Z,2.88
2022-11-07T23:01:35.132Z,3.65
2022-11-07T23:04:04.343Z,3.00
2022-11-07T23:06:34.450Z,3.13
2022-11-07T23:09:02.824Z,3.10
2022-11-07T23:11:49.547Z,3.45
2022-11-07T23:14:22.303Z,3.40
2022-11-07T23:16:53.659Z,3.03
2022-11-07T23:19:24.758Z,3.28
2022-11-07T23:21:56.286Z,3.33
2022-11-07T23:24:24.860Z,3.00
2022-11-07T23:26:52.961Z,2.80
2022-11-07T23:29:23.864Z,2.83
2022-11-07T23:31:53.062Z,3.03
2022-11-07T23:34:22.903Z,2.92
2022-11-07T23:36:52.288Z,2.70
2022-11-07T23:39:25.882Z,3.00
2022-11-07T23:41:53.951Z,2.80
2022-11-07T23:44:22.745Z,2.90
2022-11-07T23:47:08.515Z,2.45
2022-11-07T23:49:54.472Z,3.33
2022-11-07T23:52:23.027Z,2.72
2022-11-07T23:55:10.281Z,2.97
2022-11-07T23:57:52.753Z,2.78
